Cavern City Air Terminal
KCNM : rendu visible

Aérodrome :











RETROUVEZ-NOUS SUR...

 
LOGIN :

S'inscrire | Disclaimer

   EN    FR    IT 

 









Légende :    VFR   VFR Marginal   IFR   IFR Intensif   IFR Très Intensif
Visi : 
Plafond : 
>= 8 km
>= 3000ft
5 à 8 km
1000 à 3000 ft
1500m à 5 km
500 à 1000 ft
800 à 1500m
200 à 500 ft
< 800m
< 200 ft
Symboles :   Orages  Brouillard  Fortes neiges  Fortes précipitations  Vent > 20 kt






- Altitude de l'aérodrome : 3295 ft
- Code IATA : CNM


KCNM - Cavern City Air Terminal

DERNIER METAR :
  • 260553Z AUTO 26005KT 10SM CLR 06/M06 A3006 RMK AO2 SLP158 T00611056 10194 20056 51011

METARs EXPIRÉS :
  • 260453Z AUTO 26005KT 10SM CLR 06/M06 A3005 RMK AO2 SLP157 T00611056
  • 260353Z AUTO 32003KT 10SM CLR 09/M04 A3004 RMK AO2 SLP151 T00941039

TAF KCNM
Valide du 26 à 06h jusqu'au 27 à 06h UTC


260526Z 2606/2706 30007KT P6SM SKC



MET'MAP, la Météo Aéronautique d'un coup d'oeil ! - Copyright ORBIFLY Décembre 2007 - Disclaimer

ORBIFLY MET'MAP TEAM :

Programmation & Développement : Alexandra Zaïnal
Sur une idée originale de : Baudouin d'Aumeries
Assistance à la programmation : Marc-Olivier Méhu
Soutien technique & logistique : Manuel Goepfert

Contact : metmap@orbifly.com




SOURCES & CREDITS :

   NOAA       Earth
Advisory